Terminal Aerodrome Forecast
Issued by NWS

Home | Current Version | Previous Version | Text Only | Print | Product List | Glossary On
Versions: 1 2 3 4 5 6 7 8 9 10 11 12 13
000
FTUS44 KLIX 061730
TAFMCB
TAF
KMCB 061730Z 0618/0718 18005KT P6SM SCT020 BKN030
     FM070200 VRB03KT P6SM SCT030
     FM070800 VRB03KT P6SM SCT005
      TEMPO 0710/0712 3SM BR BKN005=

USA.gov is the U.S. government's official web portal to all federal, state and local government web resources and services.